Time;durP1;ratioP1;P1;durP2;ratioP2;P2;SDS_P1;SDS_P2;PMS_P1;PMS_P2;Temp;Humidity;BMP_temperature;BMP_pressure;BME280_temperature;BME280_humidity;BME280_pressure;Samples;Min_cycle;Max_cycle;Signal;HPM_P1;HPM_P2
2021/01/02 00:02:42;;;;;;;2.57;1.63;;;;;;;3.97;73.90;99613.18;1761465;80;22930;-60
2021/01/02 00:05:14;;;;;;;2.60;1.60;;;;;;;3.96;73.74;99618.53;1760742;80;21939;-61
2021/01/02 00:08:14;;;;;;;3.23;1.40;;;;;;;3.93;73.74;99619.47;1763408;80;21238;-61
2021/01/02 00:11:15;;;;;;;2.63;1.53;;;;;;;3.94;73.70;99621.23;1763526;80;21222;-61
2021/01/02 00:14:08;;;;;;;2.33;1.83;;;;;;;3.97;73.71;99633.16;1762541;79;21487;-62
2021/01/02 00:17:16;;;;;;;3.13;1.73;;;;;;;4.00;73.71;99633.06;1763668;80;21378;-62
2021/01/02 00:20:06;;;;;;;3.87;1.93;;;;;;;4.03;73.72;99640.11;1669767;84;21745;-63
2021/01/02 00:22:47;;;;;;;3.63;2.07;;;;;;;4.03;73.77;99642.32;1671509;84;21226;-62
2021/01/02 00:25:15;;;;;;;4.70;2.93;;;;;;;3.99;73.85;99652.64;1660611;84;21200;-62
2021/01/02 00:28:15;;;;;;;4.40;2.60;;;;;;;3.94;73.94;99658.96;1642301;85;21169;-63
2021/01/02 00:31:22;;;;;;;4.03;2.13;;;;;;;3.88;74.05;99666.65;1643634;85;21379;-63
2021/01/02 00:34:25;;;;;;;2.77;1.73;;;;;;;3.83;74.08;99673.00;1640731;85;21165;-61
2021/01/02 00:37:02;;;;;;;2.10;1.27;;;;;;;3.79;73.94;99681.05;1611480;85;21144;-62
2021/01/02 00:40:10;;;;;;;2.53;1.30;;;;;;;3.74;73.68;99682.91;1643033;85;21132;-61
2021/01/02 00:42:46;;;;;;;1.87;1.37;;;;;;;3.72;73.73;99684.75;1639183;85;21300;-61
2021/01/02 00:45:17;;;;;;;5.13;1.83;;;;;;;3.74;73.61;99684.73;1669076;84;21250;-61
2021/01/02 00:47:45;;;;;;;2.07;1.60;;;;;;;3.73;73.48;99685.18;1668909;84;21207;-63
2021/01/02 00:50:13;;;;;;;5.33;1.97;;;;;;;3.72;73.30;99690.08;1669474;84;21207;-62
2021/01/02 00:52:49;;;;;;;3.40;1.17;;;;;;;3.69;73.28;99695.91;1670302;84;21841;-62
2021/01/02 00:55:52;;;;;;;3.60;2.00;;;;;;;3.65;73.18;99696.90;1694478;83;21136;-62
2021/01/02 00:58:29;;;;;;;3.73;1.87;;;;;;;3.63;73.10;99703.58;1693730;83;21379;-62
2021/01/02 01:01:04;;;;;;;5.33;1.50;;;;;;;3.61;72.79;99693.41;1693625;83;21139;-62
2021/01/02 01:04:00;;;;;;;3.80;1.30;;;;;;;3.60;72.83;99699.64;1692624;83;21162;-61
2021/01/02 01:06:29;;;;;;;2.00;1.13;;;;;;;3.59;72.75;99695.22;1693981;83;21687;-62
2021/01/02 01:09:02;;;;;;;3.37;1.50;;;;;;;3.58;72.73;99701.91;1693796;83;21544;-62
2021/01/02 01:11:35;;;;;;;4.93;1.40;;;;;;;3.60;72.75;99709.41;1639979;85;21191;-62
2021/01/02 01:14:03;;;;;;;2.90;1.70;;;;;;;3.60;72.73;99710.73;1673291;84;21166;-63
2021/01/02 01:16:43;;;;;;;1.97;1.57;;;;;;;3.59;72.47;99709.86;1674319;84;21138;-62
2021/01/02 01:19:15;;;;;;;2.47;1.70;;;;;;;3.56;72.39;99713.94;1689628;83;21135;-61
2021/01/02 01:21:46;;;;;;;2.60;1.57;;;;;;;3.55;72.24;99711.30;1688354;83;21131;-62
2021/01/02 01:24:40;;;;;;;6.33;1.70;;;;;;;3.50;72.17;99712.70;1675389;83;21437;-61
2021/01/02 01:27:54;;;;;;;3.50;1.97;;;;;;;3.48;72.03;99713.22;1684882;83;21561;-62
2021/01/02 01:30:22;;;;;;;2.83;1.37;;;;;;;3.50;71.85;99715.82;1687643;83;21163;-62
2021/01/02 01:33:00;;;;;;;2.93;1.47;;;;;;;3.50;71.79;99719.81;1697329;82;21676;-62
2021/01/02 01:35:27;;;;;;;3.20;1.47;;;;;;;3.48;71.31;99729.64;1696980;82;21188;-61
2021/01/02 01:37:57;;;;;;;2.53;1.33;;;;;;;3.42;71.14;99730.61;1698672;82;21265;-63
2021/01/02 01:40:27;;;;;;;3.30;1.80;;;;;;;3.37;71.04;99738.70;1645531;84;21214;-62
2021/01/02 01:43:05;;;;;;;4.40;1.50;;;;;;;3.33;71.07;99738.77;1683430;83;21222;-63
2021/01/02 01:45:49;;;;;;;3.97;1.50;;;;;;;3.29;70.95;99745.08;1688718;83;21206;-60
2021/01/02 01:48:25;;;;;;;4.35;2.60;;;;;;;3.20;70.80;99743.91;1685521;83;21215;-61
2021/01/02 01:51:11;;;;;;;3.90;1.70;;;;;;;3.11;70.76;99741.42;1687030;83;21111;-61
2021/01/02 01:54:01;;;;;;;3.67;1.73;;;;;;;3.05;70.82;99745.08;1653172;83;21197;-61
2021/01/02 01:56:33;;;;;;;4.27;1.87;;;;;;;3.05;71.00;99747.74;1682606;83;21579;-62
2021/01/02 01:59:23;;;;;;;4.10;2.13;;;;;;;3.05;71.05;99751.73;1686988;83;21555;-61
2021/01/02 02:01:56;;;;;;;4.50;1.73;;;;;;;3.04;71.15;99752.63;1687810;83;21575;-61
2021/01/02 02:05:00;;;;;;;3.93;1.97;;;;;;;3.03;71.06;99757.52;1686332;83;21873;-61
2021/01/02 02:08:10;;;;;;;3.13;1.60;;;;;;;3.04;70.85;99767.26;1685922;83;21218;-61
2021/01/02 02:10:47;;;;;;;2.80;1.40;;;;;;;2.98;70.68;99770.00;1688717;83;21206;-60
2021/01/02 02:13:21;;;;;;;3.70;1.90;;;;;;;2.92;70.57;99772.77;1686527;83;21228;-60
2021/01/02 02:15:53;;;;;;;3.17;2.00;;;;;;;2.85;70.63;99777.33;1666473;83;21194;-60
2021/01/02 02:18:27;;;;;;;2.43;1.60;;;;;;;2.78;70.72;99785.43;1683510;83;21216;-60
2021/01/02 02:21:00;;;;;;;4.72;2.80;;;;;;;2.71;70.83;99782.45;1669290;84;21240;-58
2021/01/02 02:23:43;;;;;;;3.77;1.93;;;;;;;2.66;70.99;99786.05;1665955;84;21465;-58
2021/01/02 02:26:33;;;;;;;3.83;2.33;;;;;;;2.64;71.20;99787.84;1653555;84;21287;-59
2021/01/02 02:29:20;;;;;;;5.17;2.10;;;;;;;2.65;71.34;99793.58;1667048;84;21191;-60
2021/01/02 02:31:48;;;;;;;3.60;1.70;;;;;;;2.65;71.34;99803.34;1666592;84;21412;-58
2021/01/02 02:34:15;;;;;;;4.67;2.20;;;;;;;2.62;71.41;99800.30;1667421;84;21904;-60
2021/01/02 02:36:42;;;;;;;3.20;1.80;;;;;;;2.64;71.49;99805.11;1661197;84;21187;-60
2021/01/02 02:39:12;;;;;;;2.80;1.67;;;;;;;2.70;71.66;99798.84;1671395;84;21115;-60
2021/01/02 02:41:44;;;;;;;4.73;2.03;;;;;;;2.75;71.68;99801.42;1653837;84;22027;-59
2021/01/02 02:44:11;;;;;;;4.20;1.90;;;;;;;2.80;71.60;99801.80;1669802;84;21948;-60
2021/01/02 02:46:45;;;;;;;2.97;2.00;;;;;;;2.83;71.67;99805.70;1658430;84;21170;-60
2021/01/02 02:49:20;;;;;;;3.00;2.07;;;;;;;2.86;71.65;99808.33;1637267;85;21172;-60
2021/01/02 02:52:05;;;;;;;4.17;1.93;;;;;;;2.89;71.78;99807.41;1668675;84;21232;-59
2021/01/02 02:54:32;;;;;;;4.93;2.27;;;;;;;2.90;71.77;99816.66;1656188;84;21218;-60
2021/01/02 02:56:59;;;;;;;2.33;1.63;;;;;;;2.89;71.78;99816.23;1667051;84;21971;-61
2021/01/02 02:59:26;;;;;;;5.03;2.17;;;;;;;2.88;71.79;99829.58;1638123;85;21874;-60
2021/01/02 03:01:53;;;;;;;4.30;1.80;;;;;;;2.84;71.77;99827.41;1666700;84;21222;-61
2021/01/02 03:04:21;;;;;;;2.73;1.50;;;;;;;2.83;71.90;99828.30;1654884;84;21580;-60
2021/01/02 03:06:48;;;;;;;4.87;2.83;;;;;;;2.84;71.97;99830.06;1656554;84;21206;-60
2021/01/02 03:09:15;;;;;;;2.33;1.50;;;;;;;2.86;72.07;99827.39;1663152;84;21467;-60
2021/01/02 03:11:42;;;;;;;5.00;1.80;;;;;;;2.88;72.17;99833.56;1656124;84;21225;-60
2021/01/02 03:14:10;;;;;;;4.67;2.53;;;;;;;2.90;72.15;99840.59;1665620;84;21230;-60
2021/01/02 03:16:37;;;;;;;4.87;2.23;;;;;;;2.93;72.20;99841.89;1651298;84;21624;-60
2021/01/02 03:19:05;;;;;;;3.50;2.23;;;;;;;2.95;72.20;99845.85;1666725;84;21733;-60
2021/01/02 03:21:32;;;;;;;3.87;2.03;;;;;;;2.94;72.19;99838.33;1627886;86;21651;-60
2021/01/02 03:24:01;;;;;;;2.90;2.27;;;;;;;2.92;72.18;99837.47;1669709;84;21199;-60
2021/01/02 03:26:28;;;;;;;2.87;1.80;;;;;;;2.88;72.23;99838.44;1657852;84;21182;-60
2021/01/02 03:28:56;;;;;;;2.53;2.03;;;;;;;2.87;72.33;99841.11;1657424;84;22446;-60
2021/01/02 03:31:24;;;;;;;2.80;1.57;;;;;;;2.88;72.40;99850.40;1668138;84;21211;-60
2021/01/02 03:33:51;;;;;;;2.67;1.63;;;;;;;2.89;72.41;99852.61;1654848;84;22025;-60
2021/01/02 03:36:19;;;;;;;3.30;1.63;;;;;;;2.88;72.47;99846.41;1667283;84;21740;-60
2021/01/02 03:38:57;;;;;;;2.93;1.60;;;;;;;2.89;72.52;99843.30;1627794;86;21135;-59
2021/01/02 03:41:26;;;;;;;3.30;1.83;;;;;;;2.89;72.32;99846.81;1636852;85;21154;-60
2021/01/02 03:43:54;;;;;;;2.50;1.57;;;;;;;2.85;72.29;99850.44;1637852;85;21162;-60
2021/01/02 03:46:29;;;;;;;2.80;1.77;;;;;;;2.82;72.29;99855.78;1637017;85;21224;-60
2021/01/02 03:48:56;;;;;;;3.30;2.03;;;;;;;2.78;72.34;99867.39;1635263;85;21225;-60
2021/01/02 03:51:26;;;;;;;1.90;1.30;;;;;;;2.73;72.30;99873.65;1655598;84;21167;-59
2021/01/02 03:53:53;;;;;;;2.67;1.40;;;;;;;2.69;72.33;99879.92;1673679;84;21155;-60
2021/01/02 03:56:20;;;;;;;2.70;1.77;;;;;;;2.64;72.27;99874.66;1632470;86;21593;-60
2021/01/02 03:58:52;;;;;;;4.03;1.87;;;;;;;2.59;72.19;99877.40;1657847;84;21224;-60
2021/01/02 04:01:19;;;;;;;1.93;1.30;;;;;;;2.57;72.22;99879.64;1666908;84;21915;-60
2021/01/02 04:03:46;;;;;;;2.33;1.60;;;;;;;2.55;72.23;99880.98;1660561;84;21720;-60
2021/01/02 04:06:13;;;;;;;2.70;1.27;;;;;;;2.54;72.23;99883.69;1656454;84;21146;-61
2021/01/02 04:08:41;;;;;;;1.83;1.53;;;;;;;2.53;72.24;99885.91;1660630;84;21204;-60
2021/01/02 04:11:08;;;;;;;2.27;1.73;;;;;;;2.50;72.31;99892.14;1669580;84;22827;-60
2021/01/02 04:13:35;;;;;;;2.80;2.10;;;;;;;2.48;72.30;99901.02;1653809;84;21851;-60
2021/01/02 04:16:03;;;;;;;2.83;2.47;;;;;;;2.45;72.34;99907.27;1670738;84;21838;-60
2021/01/02 04:18:30;;;;;;;4.23;3.10;;;;;;;2.42;72.33;99921.03;1676615;83;21830;-60
2021/01/02 04:20:57;;;;;;;2.87;1.97;;;;;;;2.37;72.34;99921.11;1698140;82;21155;-60
2021/01/02 04:23:25;;;;;;;1.90;1.20;;;;;;;2.32;72.38;99928.68;1639437;85;21392;-59
2021/01/02 04:25:53;;;;;;;4.50;1.77;;;;;;;2.24;72.46;99934.97;1664596;84;21959;-60
2021/01/02 04:28:20;;;;;;;3.03;1.93;;;;;;;2.17;72.48;99937.27;1686258;83;21191;-60
2021/01/02 04:30:47;;;;;;;3.13;2.07;;;;;;;2.11;72.65;99941.78;1685703;83;21853;-61
2021/01/02 04:33:14;;;;;;;3.80;2.17;;;;;;;2.09;72.74;99939.14;1691038;83;21238;-60
2021/01/02 04:35:42;;;;;;;3.47;2.17;;;;;;;2.06;72.78;99944.91;1689235;83;21246;-60
2021/01/02 04:38:09;;;;;;;3.50;2.73;;;;;;;2.04;72.87;99953.38;1689519;83;21642;-60
2021/01/02 04:40:36;;;;;;;7.30;2.40;;;;;;;2.02;72.96;99956.48;1686770;83;21242;-61
2021/01/02 04:43:03;;;;;;;3.77;2.30;;;;;;;2.01;73.04;99952.06;1689723;83;22350;-61
2021/01/02 04:45:30;;;;;;;2.67;2.10;;;;;;;1.99;73.10;99956.05;1689830;83;21226;-61
2021/01/02 04:48:03;;;;;;;2.07;1.70;;;;;;;1.98;73.15;99969.34;1690209;83;21389;-60
2021/01/02 04:50:30;;;;;;;4.73;2.43;;;;;;;1.94;73.18;99978.25;1690499;83;22026;-60
2021/01/02 04:52:57;;;;;;;4.53;2.30;;;;;;;1.92;73.25;99970.73;1666815;84;21223;-60
2021/01/02 04:55:25;;;;;;;4.97;2.07;;;;;;;1.87;73.32;99983.59;1604300;85;21162;-60
2021/01/02 04:57:53;;;;;;;6.40;2.77;;;;;;;1.86;73.42;99984.52;1689742;83;21148;-61
2021/01/02 05:00:20;;;;;;;3.33;2.27;;;;;;;1.85;73.43;99985.41;1690164;83;21738;-61
2021/01/02 05:02:48;;;;;;;4.83;2.20;;;;;;;1.84;73.48;99981.44;1664631;83;21198;-61
2021/01/02 05:05:16;;;;;;;5.20;2.37;;;;;;;1.78;73.49;99983.71;1685783;83;21190;-62
2021/01/02 05:07:43;;;;;;;3.40;2.00;;;;;;;1.76;73.63;99980.63;1668591;84;21270;-61
2021/01/02 05:10:11;;;;;;;6.47;1.97;;;;;;;1.77;73.69;99985.92;1669301;84;22512;-61
2021/01/02 05:12:38;;;;;;;2.97;2.17;;;;;;;1.79;73.66;99981.45;1691442;83;21395;-60
2021/01/02 05:15:10;;;;;;;5.20;3.10;;;;;;;1.81;73.67;99986.76;1689259;83;21934;-61
2021/01/02 05:17:39;;;;;;;5.30;3.43;;;;;;;1.81;73.77;99986.31;1689621;83;21935;-61
2021/01/02 05:20:13;;;;;;;4.90;2.20;;;;;;;1.84;73.73;99998.69;1687635;83;21198;-61
2021/01/02 05:22:42;;;;;;;4.33;2.20;;;;;;;1.79;73.66;99998.71;1689104;83;21124;-61
2021/01/02 05:25:20;;;;;;;6.93;2.60;;;;;;;1.77;73.74;100007.60;1640026;85;21709;-60
2021/01/02 05:27:50;;;;;;;3.67;2.83;;;;;;;1.73;73.71;100012.48;1665137;84;21202;-60
2021/01/02 05:30:31;;;;;;;4.17;3.03;;;;;;;1.67;73.87;100011.22;1660720;83;21234;-60
2021/01/02 05:33:02;;;;;;;5.13;2.70;;;;;;;1.64;73.96;100019.20;1687062;83;21222;-60
2021/01/02 05:35:43;;;;;;;3.60;2.27;;;;;;;1.62;74.12;100028.48;1690203;83;21127;-60
2021/01/02 05:38:16;;;;;;;4.13;2.17;;;;;;;1.65;74.22;100034.23;1686238;83;21660;-60
2021/01/02 05:40:58;;;;;;;4.20;2.47;;;;;;;1.70;74.28;100041.73;1686893;83;21199;-61
2021/01/02 05:43:29;;;;;;;3.90;2.27;;;;;;;1.72;74.33;100044.78;1686958;83;21494;-61
2021/01/02 05:45:56;;;;;;;3.83;2.23;;;;;;;1.72;74.40;100046.55;1689411;83;22290;-60
2021/01/02 05:48:25;;;;;;;4.63;2.77;;;;;;;1.73;74.41;100049.64;1686916;83;21657;-59
2021/01/02 05:51:00;;;;;;;3.57;2.17;;;;;;;1.75;74.46;100058.04;1686541;83;21643;-61
2021/01/02 05:53:31;;;;;;;3.07;2.13;;;;;;;1.75;74.44;100063.34;1686165;83;21234;-60
2021/01/02 05:56:25;;;;;;;6.73;2.20;;;;;;;1.74;74.53;100059.37;1689462;83;21207;-60
2021/01/02 05:58:52;;;;;;;4.37;2.60;;;;;;;1.77;74.47;100069.98;1774174;78;22364;-61
2021/01/02 06:01:19;;;;;;;2.70;1.20;;;;;;;1.77;74.41;100075.28;1727119;80;21269;-64
2021/01/02 06:03:49;;;;;;;2.60;1.90;;;;;;;1.78;74.43;100078.38;1776296;80;23167;-63
2021/01/02 06:06:18;;;;;;;3.87;2.23;;;;;;;1.76;74.39;100086.34;1778271;80;21617;-65
2021/01/02 06:08:49;;;;;;;5.10;2.37;;;;;;;1.75;74.40;100088.55;1713291;81;21211;-60
2021/01/02 06:11:23;;;;;;;6.10;3.63;;;;;;;1.74;74.34;100092.55;1723647;81;21572;-60
2021/01/02 06:13:52;;;;;;;4.92;2.22;;;;;;;1.70;74.39;100085.03;1774406;78;21103;-61
2021/01/02 06:16:21;;;;;;;5.27;2.73;;;;;;;1.69;74.55;100101.87;1772192;80;22279;-61
2021/01/02 06:18:49;;;;;;;4.83;2.80;;;;;;;1.67;74.64;100093.48;1781617;78;21461;-61
2021/01/02 06:21:17;;;;;;;5.20;2.20;;;;;;;1.67;74.73;100098.34;1776229;78;21577;-63
2021/01/02 06:23:47;;;;;;;3.93;2.07;;;;;;;1.72;74.85;100096.97;1777532;80;21206;-59
2021/01/02 06:26:15;;;;;;;7.43;3.17;;;;;;;1.76;74.87;100099.61;1778990;78;21416;-61
2021/01/02 06:28:44;;;;;;;4.13;2.37;;;;;;;1.80;74.89;100109.30;1715859;81;21446;-63
2021/01/02 06:31:16;;;;;;;4.03;2.40;;;;;;;1.83;74.99;100108.41;1724591;82;22511;-59
2021/01/02 06:33:46;;;;;;;4.47;2.60;;;;;;;1.87;74.95;100106.18;1742111;81;21143;-60
2021/01/02 06:36:34;;;;;;;4.50;2.70;;;;;;;1.90;74.96;100112.77;1741244;80;22552;-59
2021/01/02 06:39:29;;;;;;;5.80;3.43;;;;;;;1.93;74.96;100114.08;1728342;82;21146;-60
2021/01/02 06:41:57;;;;;;;3.87;2.77;;;;;;;1.95;74.92;100122.05;1738335;80;21399;-60
2021/01/02 06:44:42;;;;;;;6.03;2.63;;;;;;;2.03;74.84;100121.53;1941350;72;26669;-58
2021/01/02 06:47:22;;;;;;;4.23;2.23;;;;;;;1.99;74.82;100122.44;1913908;73;21202;-59
2021/01/02 06:50:40;;;;;;;3.57;2.03;;;;;;;2.08;74.95;100125.91;1826081;76;26809;-61
2021/01/02 06:53:33;;;;;;;4.17;1.90;;;;;;;2.10;74.83;100137.41;1794620;77;21307;-61
2021/01/02 06:56:14;;;;;;;3.60;2.37;;;;;;;2.14;74.74;100137.80;1801337;77;21186;-59
2021/01/02 06:58:47;;;;;;;5.03;3.00;;;;;;;2.16;74.72;100142.66;1797604;77;21163;-60
2021/01/02 07:01:22;;;;;;;3.83;2.53;;;;;;;2.20;74.66;100143.08;1795104;77;21114;-60
2021/01/02 07:03:50;;;;;;;4.67;3.30;;;;;;;2.20;74.60;100145.73;1797225;77;21097;-59
2021/01/02 07:09:16;;;;;;;4.33;3.23;;;;;;;2.29;74.60;100159.39;1819843;76;27537;-59
2021/01/02 07:11:47;;;;;;;4.10;2.57;;;;;;;2.26;74.56;100157.62;1793050;77;21174;-60
2021/01/02 07:14:18;;;;;;;6.70;3.27;;;;;;;2.28;74.58;100165.59;1796776;77;23428;-61
2021/01/02 07:16:52;;;;;;;3.73;2.17;;;;;;;2.30;74.58;100162.92;1796139;77;21154;-60
2021/01/02 07:19:30;;;;;;;2.87;2.45;;;;;;;2.36;74.63;100169.06;1795302;77;21220;-61
2021/01/02 07:22:05;;;;;;;4.30;3.40;;;;;;;2.43;74.64;100164.56;1792099;77;21482;-58
2021/01/02 07:24:48;;;;;;;5.37;3.40;;;;;;;2.46;74.38;100160.13;1788824;77;21227;-61
2021/01/02 07:27:21;;;;;;;3.80;2.50;;;;;;;2.47;74.39;100167.61;1800402;77;21191;-64
2021/01/02 07:29:52;;;;;;;;;;;;;;;2.48;74.51;100168.94;1793386;77;21178;-60
2021/01/02 07:32:27;;;;;;;4.73;2.27;;;;;;;2.53;74.35;100178.22;1791343;77;20290;-62
2021/01/02 07:35:03;;;;;;;6.90;3.30;;;;;;;2.51;74.31;100179.55;1795326;77;20925;-60
2021/01/02 07:37:36;;;;;;;4.27;2.83;;;;;;;2.54;74.23;100186.63;1794009;77;21187;-61
2021/01/02 07:40:09;;;;;;;3.87;2.00;;;;;;;2.56;74.25;100190.13;1790243;77;21388;-66
2021/01/02 07:42:51;;;;;;;5.73;2.67;;;;;;;2.60;74.24;100186.56;1772988;77;21190;-61
2021/01/02 07:45:21;;;;;;;5.50;2.83;;;;;;;2.63;74.36;100194.07;1770088;78;21154;-62
2021/01/02 07:47:54;;;;;;;5.67;3.00;;;;;;;2.67;74.34;100196.23;1774807;78;21202;-59
2021/01/02 07:50:24;;;;;;;3.87;2.43;;;;;;;2.70;74.27;100196.22;1772890;78;21507;-59
2021/01/02 07:52:59;;;;;;;6.73;2.77;;;;;;;2.74;74.33;100199.26;1770529;78;22591;-63
2021/01/02 07:55:31;;;;;;;4.70;3.23;;;;;;;2.78;74.27;100196.14;1773500;78;21119;-59
2021/01/02 07:57:59;;;;;;;6.63;3.50;;;;;;;2.80;74.11;100200.55;1772778;78;21111;-60
2021/01/02 08:00:26;;;;;;;5.90;3.93;;;;;;;2.80;74.09;100208.53;1774665;78;22250;-58
2021/01/02 08:03:03;;;;;;;4.43;2.43;;;;;;;2.82;74.04;100209.81;1774725;78;21168;-62
2021/01/02 08:05:30;;;;;;;5.07;3.67;;;;;;;2.85;74.11;100217.33;1772364;78;21777;-62
2021/01/02 08:08:02;;;;;;;4.80;2.40;;;;;;;2.91;74.17;100221.25;1774363;78;21214;-59
2021/01/02 08:10:31;;;;;;;5.73;2.50;;;;;;;2.98;74.20;100212.30;1787886;78;21111;-60
2021/01/02 08:13:02;;;;;;;5.07;3.03;;;;;;;3.07;74.14;100216.65;1789943;78;21094;-61
2021/01/02 08:15:31;;;;;;;3.30;1.90;;;;;;;3.13;74.08;100217.05;1789596;78;21524;-58
2021/01/02 08:18:04;;;;;;;4.90;2.67;;;;;;;3.19;74.02;100226.28;1791033;78;21300;-58
2021/01/02 08:20:31;;;;;;;6.87;3.40;;;;;;;3.22;73.92;100225.81;1788384;78;22271;-63
2021/01/02 08:23:07;;;;;;;9.23;3.70;;;;;;;3.24;73.75;100232.42;1785047;78;21183;-58
2021/01/02 08:25:35;;;;;;;4.60;3.27;;;;;;;3.25;73.77;100230.20;1785122;78;21789;-59
2021/01/02 08:28:02;;;;;;;9.90;3.40;;;;;;;3.26;73.68;100231.97;1758761;78;21188;-59
2021/01/02 08:30:30;;;;;;;5.27;3.40;;;;;;;3.28;73.72;100239.48;1760139;78;21546;-62
2021/01/02 08:32:59;;;;;;;5.40;3.13;;;;;;;3.32;73.68;100242.53;1787931;78;21237;-61
2021/01/02 08:35:29;;;;;;;4.67;3.23;;;;;;;3.36;73.71;100248.27;1786371;78;21176;-61
2021/01/02 08:38:08;;;;;;;3.80;2.37;;;;;;;3.40;73.73;100245.53;1788783;78;21091;-62
2021/01/02 08:40:39;;;;;;;7.50;3.40;;;;;;;3.45;73.68;100249.50;1754476;80;21516;-60
2021/01/02 08:43:06;;;;;;;6.97;2.90;;;;;;;3.50;73.53;100247.65;1765324;79;22262;-63
2021/01/02 08:45:39;;;;;;;5.33;3.77;;;;;;;3.52;73.40;100256.95;1768786;79;21386;-63
2021/01/02 08:48:12;;;;;;;5.13;2.30;;;;;;;3.54;73.37;100255.16;1765708;79;21326;-61
2021/01/02 08:50:40;;;;;;;3.67;2.37;;;;;;;3.55;73.52;100251.16;1725896;81;21109;-61
2021/01/02 08:53:28;;;;;;;3.20;2.30;;;;;;;3.60;73.55;100255.08;1737752;80;21201;-61
2021/01/02 08:55:55;;;;;;;4.93;2.37;;;;;;;3.65;73.31;100248.81;1745795;80;21232;-62
2021/01/02 08:58:31;;;;;;;5.07;2.70;;;;;;;3.70;73.17;100251.41;1770800;79;21214;-62
2021/01/02 09:00:58;;;;;;;3.03;1.97;;;;;;;3.74;73.07;100246.49;1720379;81;21227;-61
2021/01/02 09:03:26;;;;;;;3.37;1.97;;;;;;;3.80;73.20;100244.63;1749901;80;21836;-62
2021/01/02 09:05:54;;;;;;;4.87;2.60;;;;;;;3.87;73.22;100242.75;1769888;79;21695;-62
2021/01/02 09:08:23;;;;;;;4.40;2.67;;;;;;;3.92;73.00;100248.00;1726787;81;21817;-62
2021/01/02 09:10:56;;;;;;;3.17;2.40;;;;;;;3.99;73.03;100253.70;1770592;79;21687;-63
2021/01/02 09:13:24;;;;;;;4.37;2.10;;;;;;;4.04;72.94;100254.06;1776806;78;21131;-63
2021/01/02 09:16:01;;;;;;;5.27;2.43;;;;;;;4.09;72.92;100248.66;1776631;79;21130;-61
2021/01/02 09:18:34;;;;;;;4.03;2.50;;;;;;;4.13;72.84;100253.05;1773525;79;21587;-62
2021/01/02 09:21:12;;;;;;;5.10;2.67;;;;;;;4.18;72.82;100255.19;1777904;78;21203;-62
2021/01/02 09:23:43;;;;;;;3.73;2.00;;;;;;;4.24;72.58;100255.13;1772555;79;21230;-62
2021/01/02 09:26:31;;;;;;;5.57;2.20;;;;;;;4.29;72.44;100252.38;1773249;79;21148;-62
2021/01/02 09:29:01;;;;;;;3.73;2.10;;;;;;;4.31;72.20;100255.45;1779017;79;21137;-63
2021/01/02 09:31:32;;;;;;;5.50;2.10;;;;;;;4.30;72.12;100244.81;1782606;78;21105;-65
2021/01/02 09:33:59;;;;;;;4.63;2.83;;;;;;;4.32;72.01;100254.55;1752146;79;21316;-62
2021/01/02 09:36:27;;;;;;;6.73;4.03;;;;;;;4.33;72.00;100249.66;1778229;79;21123;-62
2021/01/02 09:38:54;;;;;;;5.47;3.30;;;;;;;4.35;72.00;100254.48;1774017;78;21102;-62
2021/01/02 09:41:23;;;;;;;4.03;2.67;;;;;;;4.39;71.94;100259.33;1772577;79;22147;-63
2021/01/02 09:43:53;;;;;;;4.77;3.03;;;;;;;4.43;71.91;100259.70;1774245;78;21095;-63
2021/01/02 09:46:23;;;;;;;5.10;2.80;;;;;;;4.49;71.89;100252.95;1773593;79;21553;-63
2021/01/02 09:48:52;;;;;;;6.87;3.30;;;;;;;4.55;71.86;100259.06;1773475;79;21346;-63
2021/01/02 09:51:23;;;;;;;5.40;3.57;;;;;;;4.63;71.96;100260.73;1774942;79;21115;-62
2021/01/02 09:53:51;;;;;;;6.10;4.37;;;;;;;4.70;71.95;100263.27;1776193;79;21111;-63
2021/01/02 09:56:19;;;;;;;7.83;3.97;;;;;;;4.76;71.90;100262.30;1770136;79;21237;-63
2021/01/02 09:58:46;;;;;;;6.13;4.00;;;;;;;4.82;71.77;100259.53;1775358;79;21750;-62
2021/01/02 10:01:15;;;;;;;8.87;4.03;;;;;;;4.85;71.64;100268.34;1771375;79;21203;-66
2021/01/02 10:03:43;;;;;;;5.07;3.63;;;;;;;4.89;71.54;100263.39;1775682;79;21202;-62
2021/01/02 10:06:10;;;;;;;5.00;3.53;;;;;;;4.94;71.60;100257.96;1748406;80;21210;-62
2021/01/02 10:08:40;;;;;;;8.10;3.93;;;;;;;5.01;71.46;100253.42;1773283;79;21082;-64
2021/01/02 10:11:07;;;;;;;5.20;3.93;;;;;;;5.06;71.15;100252.88;1765066;79;22376;-62
2021/01/02 10:13:35;;;;;;;4.57;3.87;;;;;;;5.07;70.87;100251.52;1770394;79;21117;-63
2021/01/02 10:16:02;;;;;;;6.63;4.07;;;;;;;5.08;70.89;100255.07;1763259;79;21162;-62
2021/01/02 10:18:31;;;;;;;7.53;4.57;;;;;;;5.09;71.02;100254.17;1771890;79;21698;-65
2021/01/02 10:20:59;;;;;;;5.20;3.43;;;;;;;5.11;70.89;100255.88;1774189;79;21187;-62
2021/01/02 10:23:26;;;;;;;5.77;3.50;;;;;;;5.13;70.86;100255.41;1771155;79;21326;-63
2021/01/02 10:25:53;;;;;;;6.70;3.83;;;;;;;5.13;70.65;100255.85;1770570;79;22236;-62
2021/01/02 10:28:21;;;;;;;6.33;3.27;;;;;;;5.10;70.31;100262.16;1769380;79;21214;-61
2021/01/02 10:30:49;;;;;;;3.97;2.80;;;;;;;5.09;70.33;100263.05;1770406;79;21205;-62
2021/01/02 10:33:16;;;;;;;6.43;4.73;;;;;;;5.09;70.25;100265.72;1765905;79;21194;-62
2021/01/02 10:35:44;;;;;;;6.77;3.53;;;;;;;5.10;70.45;100264.82;1765819;79;21651;-61
2021/01/02 10:38:11;;;;;;;6.97;4.03;;;;;;;5.11;70.53;100261.66;1766664;79;22669;-62
2021/01/02 10:40:39;;;;;;;6.47;4.83;;;;;;;5.13;70.67;100262.08;1768613;79;21173;-62
2021/01/02 10:43:06;;;;;;;5.47;4.10;;;;;;;5.18;70.48;100266.02;1769841;79;21179;-61
2021/01/02 10:45:34;;;;;;;8.07;5.73;;;;;;;5.17;70.57;100267.80;1764615;79;21970;-62
2021/01/02 10:48:01;;;;;;;7.13;4.67;;;;;;;5.17;70.61;100275.80;1767889;79;21391;-62
2021/01/02 10:50:29;;;;;;;7.87;3.77;;;;;;;5.16;70.47;100270.03;1762637;79;21178;-61
2021/01/02 10:52:56;;;;;;;7.67;4.13;;;;;;;5.18;70.49;100266.89;1764393;79;21187;-62
2021/01/02 10:55:24;;;;;;;7.33;4.20;;;;;;;5.17;70.41;100262.46;1769279;79;21168;-62
2021/01/02 10:57:52;;;;;;;7.40;4.60;;;;;;;5.15;70.46;100268.72;1766300;79;21079;-63
2021/01/02 11:00:21;;;;;;;5.20;4.20;;;;;;;5.14;70.35;100264.30;1763685;79;21936;-63
2021/01/02 11:02:49;;;;;;;5.87;4.40;;;;;;;5.14;70.38;100274.96;1772935;79;21135;-61
2021/01/02 11:05:16;;;;;;;7.17;5.50;;;;;;;5.12;70.37;100264.31;1771003;79;21171;-62
2021/01/02 11:07:44;;;;;;;13.13;6.40;;;;;;;5.12;70.57;100261.64;1767726;79;21409;-61
2021/01/02 11:10:12;;;;;;;14.70;8.17;;;;;;;5.14;70.60;100271.84;1770082;79;21269;-61
2021/01/02 11:12:42;;;;;;;8.97;4.90;;;;;;;5.17;70.51;100270.47;1769498;79;22107;-62
2021/01/02 11:15:12;;;;;;;10.43;6.33;;;;;;;5.21;70.42;100268.60;1768377;79;21237;-62
2021/01/02 11:17:40;;;;;;;11.07;7.27;;;;;;;5.24;70.23;100275.23;1770252;79;21775;-62
2021/01/02 11:20:09;;;;;;;8.80;4.93;;;;;;;5.25;70.25;100267.20;1769287;79;21212;-62
2021/01/02 11:22:37;;;;;;;8.30;5.33;;;;;;;5.27;70.24;100274.70;1764515;79;21574;-62
2021/01/02 11:25:06;;;;;;;8.37;5.40;;;;;;;5.27;70.15;100276.52;1766911;79;21278;-62
2021/01/02 11:27:33;;;;;;;7.13;5.07;;;;;;;5.26;70.16;100270.30;1770838;79;21137;-62
2021/01/02 11:30:01;;;;;;;6.53;4.90;;;;;;;5.25;69.99;100279.21;1769392;79;21114;-61
2021/01/02 11:32:30;;;;;;;6.60;4.47;;;;;;;5.22;69.92;100280.59;1696721;82;21151;-61
2021/01/02 11:34:57;;;;;;;6.73;3.93;;;;;;;5.18;69.92;100280.23;1703530;82;21210;-62
2021/01/02 11:37:24;;;;;;;4.83;3.70;;;;;;;5.18;69.91;100278.02;1768682;79;23628;-62
2021/01/02 11:39:51;;;;;;;7.63;3.80;;;;;;;5.18;69.96;100278.02;1769241;79;21976;-62
2021/01/02 11:42:19;;;;;;;5.63;4.77;;;;;;;5.19;70.05;100277.12;1769053;79;21209;-63
2021/01/02 11:44:47;;;;;;;5.47;4.20;;;;;;;5.21;70.15;100288.17;1772604;79;21170;-62
2021/01/02 11:47:16;;;;;;;8.83;3.80;;;;;;;5.24;70.16;100284.12;1765957;79;21166;-61
2021/01/02 11:49:44;;;;;;;5.73;3.93;;;;;;;5.26;70.04;100286.31;1769595;79;21776;-62
2021/01/02 11:52:11;;;;;;;6.70;4.87;;;;;;;5.28;69.95;100283.59;1745739;79;21121;-63
2021/01/02 11:54:40;;;;;;;4.80;3.60;;;;;;;5.27;69.92;100292.53;1740274;80;20979;-62
2021/01/02 11:57:08;;;;;;;6.47;4.30;;;;;;;5.25;69.76;100286.34;1720835;79;21101;-62
2021/01/02 11:59:35;;;;;;;4.97;3.60;;;;;;;5.23;69.59;100289.48;1773938;79;21143;-62
2021/01/02 12:02:06;;;;;;;5.87;3.37;;;;;;;5.19;69.55;100291.31;1766681;79;21457;-62
2021/01/02 12:04:33;;;;;;;6.20;3.37;;;;;;;5.21;69.55;100285.95;1769373;79;21973;-61
2021/01/02 12:07:00;;;;;;;4.80;3.43;;;;;;;5.22;69.56;100294.39;1765428;79;21198;-61